LFMC 181530Z AUTO 14009KT 120V180 9999 VCTS ////// 26/19 Q1009

ElémentsDécodage
LFMC Station météo située sur l'aérodrome de LE-LUC Le-Cannet
181530Z émis le 18 du mois à 15h30 UTC
AUTO Bulletin édité par un automate
14009KT vent du 140°, 09 noeuds
120V180 vent de direction variable entre 120° et 180°
9999 visibilité horizontale supérieure à 10 Km
VCTS au voisinage, ? d'orage
////// nébulosité (type et hauteur) non disponible
 type de nuage non observable
26/19 température 26°C, point de rosée 19°C
 soit une humidité relative de 65%
Q1009 la pression au niveau de la mer (QNH) est de 1009 hPa